Timeline UpdatesTrip UpdatesNews PostsPvt PostsTravel TipsAdmin PostsConv PostsFollowed PostsChat RequestsBlog PostsPNR Posts

Disclaimer
Search
 
 
Wed Jul 23, 2014 13:24:12 ISTHomeTrainsΣChainsAtlasPNRForumGalleryNewsFAQTripsMembersLoginFeedback
No Recent News for this Train
Other Trains in the News **new
Latest...
.
Tue Jan 22, 2013 (09:18AM)
⇐ Return Journey: Train# 51422

51421/Pune-Nizamabad Passenger (UnReserved)

Jan 16 2014 (7:29PM)
Change Departure Station:
Change Arrival Station:
Post a Train Travel TipPost a Train Travel Tip **new
Post a Comment/Question/Picture/VideoPost a Comment/Question/Picture/Video
Pantry/Catering
✕ NO Pantry Car
✓ Catering Avbl
Loco/Rake Reversals
DD/Daund Junction (7);
RSA - Rake Sharing
51451-Pune-Daund Shuttle,51433-Nizamabad Pandharpur Passenger,51434-Pandharpur Nizamabad Passenger,51422-Nizamabad Pune Passenger
Rake/Coach Composition
SLR, UR, UR, UR, UR, UR, UR, UR, SLR,
Loco
PUNE WDM/G-3A / WDM-3D
News    PNR    Forum    Time-Table    Availability    Fare Chart    Map    Arr/Dep History    Trips    Gallery    ΣChains    X/O    Timeline    
Travel Time: 19h 28m    80 halts    Distance: 757 km    Avg Speed: 38 km/hr
Type: Passenger
Zone: CR/Central
Departs @ 14:52
Platform# 2
SMTWTFS
Loni/LONI 
Arrives @ 10:20 +1 night
Platform# ???
SMTWTFS
Nizamabad/NZB 

80 halts. 90 intermediate Stations between Loni and Nizamabad

Show ALL intermediate Stations  Show Old Time-Table

#CodeStation NameX/OArrivesAvgDepartsAvgHaltPFDay#KmSpeedElevZoneAddress
1PUNEPune Junction (6)  -14:25-51-16.466556mCRPune 411001, Maharashtra
2GPRWGhorpuri West (2)X  14:27-14:28-1m--1-14.227552mCRPune 411001, Maharashtra
3HDPHadapsar (3)  14:36-14:37-1m11-10.649554mCRPune 411028, Maharashtra
4MJBKManjari Budruk (2)  14:43-14:44-1m21-5.648550mCRPune 412307, Maharashtra
5LONI»Loni (2)»  14:51-14:52-1m210.062541mCRPune 412201, Maharashtra
6URIUruli (2)X  15:04-15:05-1m2112.458553mCRDist. Pune 412202, Maharashtra
7YTYevat (2)  15:18-15:19-1m2125.075558mCRDist. Pune 412214, Maharashtra
8KTTKhutbav (2)X  15:24-15:25-1m2131.364558mCRShirur-Daund Rd Daund, Maharashtra
9KDGKedgaon (2)X  15:31-15:32-1m2137.751544mCRDist. Pune 412203, Maharashtra
10KDTNKadethan  15:38-15:39-1m2142.836532mCRDaund, Maharashtra
11PAAPatas (3)  15:47-15:48-1m2147.632532mCRDist. Pune 412219, Maharashtra
12DDDaund Junction (7)X16:10-16:25-15m3159.255521mCRNew Daund Dist. Pune 413801, Maharashtra
13KSTHKashti (2)X  16:39-16:40-1m1172.126540mCRDaund, Maharashtra
14SGNDShrigonda Road (2)O  16:59-17:00-1m1180.345547mCRAhmadnagar, Maharashtra
15BWDBelwandi (2)X  17:19-17:20-1m1194.568592mCRAhmadnagar, Maharashtra
16VPRVisapur (2)  17:32-17:33-1m11108.241186mCRAhmadnagar, Maharashtra
17RNJDRanjangaon Road (1)  17:42-17:43-1m11114.442656mCRDist. Pune, Maharashtra
18SRLSarola (2)  17:58-17:59-1m11124.8430mCRAhmadnagar, Maharashtra
19AKRAkolner (1)  18:07-18:08-1m11130.640689mCRAhmadnagar, Maharashtra
20ANGAhmadnagar (2)X  18:27-18:30-3m11143.449650mCRAhmednagar 414001, Maharashtra
21NNBNimblak (1)X  18:39-18:40-1m11150.757656mCRAhmednagar, Maharashtra
22VLVilad (1)  18:49-18:50-1m11159.249598mCRAhmadnagar, Maharashtra
23VBRVambori (1)  19:04-19:05-1m11170.866547mCRAhmadnagar, Maharashtra
24RRIRahuri (2)  19:17-19:18-1m--1184.062519mCRAhmadnagar, Maharashtra
25TKMYTaklimiya (1)  19:23-19:24-1m11189.268511mCRVambori, Maharashtra
26PDGNPadhegaon (1)  19:32-19:33-1m11198.351512mCRBelapur, Maharashtra
27NPWNipani Vadgaon (2)  19:40-19:41-1m--1204.221531mCRChitali, Maharashtra
28BAPBelapur (2)O  19:59-20:00-1m11210.446541mCRShrirampur, Maharashtra
29CITChitali (1)X20:15-20:16-1m11221.959531mCRAhmadnagar, Maharashtra
30PBPuntamba Junction (2)O  20:25-20:26-1m11230.759501mCRPuntamba, Maharashtra
31KNGNKanhegaon (2)  20:35-20:36-1m--1239.751498mCRAhmadnagar, Maharashtra
32SNVRSanvatsarX  20:45-20:46-1m--1247.317521mCRNagpur-Aurngabad-Mumbai Hwy, Maharashtra
33KPGKopargaon (2)X21:14-21:15-1m11255.158508mCRKopargaon 423601, Maharashtra
34YLYeola (2)X  21:29-21:30-1m--1268.723553mCRYeola, Maharashtra
35MMRManmad Junction (6)  22:45-22:50-5m51297.352580mCRManmad 423104, Maharashtra
36ANKAnkai (3)  23:14-23:15-1m11312.266620mSCRDist. Nashik, Maharashtra
37NSLNagarsol (2)  23:24-23:25-1m--1322.137589mSCRDist. Nashik, Maharashtra
38TRTarur  23:35-23:36-1m--1328.3131586mSCRTaru, Maharashtra
39RGORotegaon  23:46-23:47-1m--1350.182547mSCRAurangabad, Maharashtra
40PSDParsoda  23:56-23:57-1m--1362.470530mSCRRotegaon, Maharashtra
41KAJGKaranjgaonX  00:01-00:02-1m--2367.151523mSCRLasur, Maharashtra
42LSRLasur (2)  00:14-00:15-1m--2377.279536mSCRAurangabad, Maharashtra
43POZPotul (1)  00:24-00:25-1m12389.062554mSCRLasur, Maharashtra
44DLBDaulatabad (1)  00:34-00:35-1m12398.350575mSCRDaulatabad, Maharashtra
45AWBAurangabad (5)X  00:50-00:55-5m--2410.843561mSCRAurangabad 431001, Maharashtra
46MKDDMukundwadi Halt (1)X  01:09-01:10-1m12420.8-580mSCRAurangabad, Maharashtra
47CTHChikalthan  01:14-01:15-1m--2435.117582mSCRAurangabad, Maharashtra
48KMVKarmadX  01:29-01:30-1m--2439.066567mSCRAurangabad, Maharashtra
49BDUBadnapur  01:44-01:45-1m--2454.588523mSCRJalna, Maharashtra
50JJalna (3)  01:58-02:00-2m--2473.565502mSCRJalna, Maharashtra
51SVDSarwariX  02:09-02:10-1m--2483.266493mSCRRanjani, Maharashtra
52KODIKodi  02:19-02:20-1m--2493.175473mSCRRanjani, Maharashtra
53RNERanjani  02:29-02:30-1m--2504.442469mSCRJalna, Maharashtra
54PDGParadgaonX  02:39-02:40-1m--2510.648454mSCRUsmanpur, Maharashtra
55PTUPartur (2)X  02:49-02:50-1m--2517.863465mSCRJalna, Maharashtra
56UPRUsmanpur  02:59-03:00-1m--2527.353444mSCRUsmanpur, Maharashtra
57SCOSatuna  03:09-03:10-1m--2535.268440mSCRSatona, Maharashtra
58SELUSelu (2)  03:19-03:20-1m--2545.464436mSCRParbhani, Maharashtra
59DGPPDhengli PimpalgaonX  03:29-03:30-1m--2555.036407mSCRSatuna, Maharashtra
60MVOManwath Road (2)X  03:39-03:40-1m--2560.462421mSCRParbhani, Maharashtra
61DAVDevalgaon Avchar  03:49-03:50-1m--2569.740425mSCRParbhani, Maharashtra
62PGPergaonX  03:59-04:00-1m--2575.726441mSCRParbhani, Maharashtra
63PBNParbhani Junction (3)  04:28-04:30-2m12587.873414mSCRParbhani 431401, Maharashtra
64PIZPingli (1)X  04:39-04:40-1m12598.836399mSCRParbhani, Maharashtra
65MQLMirkhalX  04:49-04:50-1m--2604.221405mSCRPurna, Maharashtra
66PAUPurna Junction (4)X  05:25-05:30-5m--2616.342384mSCRPurna, Maharashtra
67CRUChudawa (1)X  05:44-05:45-1m12626.264392mSCRHingoli, Maharashtra
68LBGLimbgaon (2)  05:54-05:55-1m--2635.870390mSCRHuzur Sahib Nanded, Maharashtra
69WNGWanegaonX  05:59-06:00-1m--2640.511371mSCRChudawa, Maharashtra
70NEDHazur Sahib Nanded (4)X  06:35-06:40-5m22646.942366mSCRNanded, Maharashtra
71MTDIMaltekdi  06:44-06:45-1m--2649.648362mSCRNanded, Maharashtra
72PARDPathrad  06:54-06:55-1m--2656.822363mSCRHuzur Sahib Nanded, Maharashtra
73MGCMugatX  07:04-07:05-1m--2660.110360mSCRHuzur Sahib Nanded, Maharashtra
74MUEMudkhed Junction (4)X  07:58-08:00-2m--2669.254378mSCRMudkhed, Maharashtra
75SVNSivungaon  08:08-08:09-1m--2676.453395mSCRHuzur Sahib Nanded, Maharashtra
76SLGHShelgaon Halt  08:14-08:15-1m--2680.947378mSCRMudkhed, Maharashtra
77UMRIUmri (1)  08:25-08:26-1m12688.756381mSCRHuzur Sahib Nanded, Maharashtra
78BLSABolsa  08:35-08:36-1m--2697.150361mSCRDharmabad, Maharashtra
79KEKKarkheli  08:45-08:46-1m--2704.671358mSCRBiloli, Maharashtra
80SQESamrla  08:52-08:53-1m--2711.749360mSCRDharmabad, Maharashtra
81DABDharmabad (2)  09:01-09:02-1m--2718.237354mSCRDegaon, Maharashtra
82BSXBasar (2)  09:18-09:20-2m12728.067358mSCRDist Adilabad, Telangana
83FKBFakrabad (1)  09:26-09:27-1m12734.747348mSCRNizamabad Dist., Telangana
84NVTNavipet (2)  09:36-09:37-1m--2741.870374mSCRNizamabad Dist., Telangana
85JKMJankampet Junction (1)  09:45-09:46-1m12751.111391mSCRJankampet Junction nizamabad dist., Telangana
86NZB•Nizamabad (3)•  10:20----2757.4-384mSCRNizamabad, Telangana
Scroll to Top
Scroll to Bottom